sensor_id;sensor_type;location;lat;lon;timestamp;P1;durP1;ratioP1;P2;durP2;ratioP2
44462;SDS011;30170;52.190;8.702;2022-12-18T00:01:15;65.60;;;36.90;;
44462;SDS011;30170;52.190;8.702;2022-12-18T00:03:42;69.60;;;35.92;;
44462;SDS011;30170;52.190;8.702;2022-12-18T00:06:11;81.35;;;34.25;;
44462;SDS011;30170;52.190;8.702;2022-12-18T00:08:40;66.80;;;32.08;;
44462;SDS011;30170;52.190;8.702;2022-12-18T00:11:08;68.35;;;32.55;;
44462;SDS011;30170;52.190;8.702;2022-12-18T00:13:40;67.93;;;32.28;;
44462;SDS011;30170;52.190;8.702;2022-12-18T00:16:12;54.55;;;28.75;;
44462;SDS011;30170;52.190;8.702;2022-12-18T00:18:41;72.57;;;33.47;;
44462;SDS011;30170;52.190;8.702;2022-12-18T00:21:09;56.65;;;29.65;;
44462;SDS011;30170;52.190;8.702;2022-12-18T00:23:37;62.95;;;29.50;;
44462;SDS011;30170;52.190;8.702;2022-12-18T00:26:10;72.43;;;34.25;;
44462;SDS011;30170;52.190;8.702;2022-12-18T00:28:39;67.30;;;31.13;;
44462;SDS011;30170;52.190;8.702;2022-12-18T00:31:07;74.55;;;35.88;;
44462;SDS011;30170;52.190;8.702;2022-12-18T00:33:36;66.10;;;33.08;;
44462;SDS011;30170;52.190;8.702;2022-12-18T00:36:05;67.40;;;32.58;;
44462;SDS011;30170;52.190;8.702;2022-12-18T00:38:35;68.65;;;32.50;;
44462;SDS011;30170;52.190;8.702;2022-12-18T00:41:03;64.78;;;31.83;;
44462;SDS011;30170;52.190;8.702;2022-12-18T00:43:30;48.85;;;26.48;;
44462;SDS011;30170;52.190;8.702;2022-12-18T00:45:57;64.00;;;30.70;;
44462;SDS011;30170;52.190;8.702;2022-12-18T00:48:24;70.75;;;29.70;;
44462;SDS011;30170;52.190;8.702;2022-12-18T00:50:51;62.03;;;29.80;;
44462;SDS011;30170;52.190;8.702;2022-12-18T00:53:18;58.33;;;29.60;;
44462;SDS011;30170;52.190;8.702;2022-12-18T00:55:45;60.60;;;28.20;;
44462;SDS011;30170;52.190;8.702;2022-12-18T00:58:13;75.13;;;32.88;;
44462;SDS011;30170;52.190;8.702;2022-12-18T01:00:42;49.25;;;26.92;;
44462;SDS011;30170;52.190;8.702;2022-12-18T01:03:09;60.20;;;30.02;;
44462;SDS011;30170;52.190;8.702;2022-12-18T01:05:40;65.90;;;30.48;;
44462;SDS011;30170;52.190;8.702;2022-12-18T01:08:08;55.25;;;28.77;;
44462;SDS011;30170;52.190;8.702;2022-12-18T01:10:35;62.85;;;29.45;;
44462;SDS011;30170;52.190;8.702;2022-12-18T01:13:02;61.60;;;28.90;;
44462;SDS011;30170;52.190;8.702;2022-12-18T01:15:29;52.20;;;27.63;;
44462;SDS011;30170;52.190;8.702;2022-12-18T01:17:56;63.50;;;28.20;;
44462;SDS011;30170;52.190;8.702;2022-12-18T01:20:23;57.70;;;28.23;;
44462;SDS011;30170;52.190;8.702;2022-12-18T01:22:49;51.28;;;26.83;;
44462;SDS011;30170;52.190;8.702;2022-12-18T01:25:16;62.97;;;29.75;;
44462;SDS011;30170;52.190;8.702;2022-12-18T01:27:43;48.67;;;26.50;;
44462;SDS011;30170;52.190;8.702;2022-12-18T01:30:10;50.75;;;27.10;;
44462;SDS011;30170;52.190;8.702;2022-12-18T01:32:37;51.55;;;26.40;;
44462;SDS011;30170;52.190;8.702;2022-12-18T01:35:04;52.58;;;26.65;;
44462;SDS011;30170;52.190;8.702;2022-12-18T01:37:31;60.22;;;25.35;;
44462;SDS011;30170;52.190;8.702;2022-12-18T01:39:58;55.03;;;27.10;;
44462;SDS011;30170;52.190;8.702;2022-12-18T01:42:25;50.17;;;25.52;;
44462;SDS011;30170;52.190;8.702;2022-12-18T01:47:42;54.58;;;27.40;;
44462;SDS011;30170;52.190;8.702;2022-12-18T01:50:15;56.08;;;26.55;;
44462;SDS011;30170;52.190;8.702;2022-12-18T01:52:43;54.28;;;25.25;;
44462;SDS011;30170;52.190;8.702;2022-12-18T01:55:11;58.85;;;27.30;;
44462;SDS011;30170;52.190;8.702;2022-12-18T01:57:38;53.92;;;25.23;;
44462;SDS011;30170;52.190;8.702;2022-12-18T02:00:13;54.45;;;25.38;;
44462;SDS011;30170;52.190;8.702;2022-12-18T02:02:41;61.08;;;27.77;;
44462;SDS011;30170;52.190;8.702;2022-12-18T02:05:10;52.72;;;25.02;;
44462;SDS011;30170;52.190;8.702;2022-12-18T02:15:39;49.47;;;25.95;;
44462;SDS011;30170;52.190;8.702;2022-12-18T02:18:12;53.55;;;26.35;;
44462;SDS011;30170;52.190;8.702;2022-12-18T02:23:38;50.45;;;26.60;;
44462;SDS011;30170;52.190;8.702;2022-12-18T02:31:42;54.65;;;25.30;;
44462;SDS011;30170;52.190;8.702;2022-12-18T02:34:11;54.85;;;23.52;;
44462;SDS011;30170;52.190;8.702;2022-12-18T02:36:40;43.03;;;23.98;;
44462;SDS011;30170;52.190;8.702;2022-12-18T02:39:08;54.30;;;25.15;;
44462;SDS011;30170;52.190;8.702;2022-12-18T02:41:37;46.08;;;21.75;;
44462;SDS011;30170;52.190;8.702;2022-12-18T02:44:12;45.47;;;22.08;;
44462;SDS011;30170;52.190;8.702;2022-12-18T02:52:05;49.25;;;24.92;;
44462;SDS011;30170;52.190;8.702;2022-12-18T02:54:42;45.55;;;21.33;;
44462;SDS011;30170;52.190;8.702;2022-12-18T02:57:19;43.80;;;22.23;;
44462;SDS011;30170;52.190;8.702;2022-12-18T03:05:26;39.00;;;20.58;;
44462;SDS011;30170;52.190;8.702;2022-12-18T03:07:58;44.38;;;20.63;;
44462;SDS011;30170;52.190;8.702;2022-12-18T03:10:35;48.60;;;21.17;;
44462;SDS011;30170;52.190;8.702;2022-12-18T03:13:10;44.85;;;20.10;;
44462;SDS011;30170;52.190;8.702;2022-12-18T03:15:42;41.42;;;19.73;;
44462;SDS011;30170;52.190;8.702;2022-12-18T03:18:25;45.88;;;20.75;;
44462;SDS011;30170;52.190;8.702;2022-12-18T03:23:40;42.40;;;20.40;;
44462;SDS011;30170;52.190;8.702;2022-12-18T03:26:12;39.67;;;19.10;;
44462;SDS011;30170;52.190;8.702;2022-12-18T03:28:42;41.22;;;18.52;;
44462;SDS011;30170;52.190;8.702;2022-12-18T03:31:15;39.75;;;19.55;;
44462;SDS011;30170;52.190;8.702;2022-12-18T03:33:51;40.95;;;19.65;;
44462;SDS011;30170;52.190;8.702;2022-12-18T03:36:19;35.55;;;18.33;;
44462;SDS011;30170;52.190;8.702;2022-12-18T03:38:46;37.38;;;19.08;;
44462;SDS011;30170;52.190;8.702;2022-12-18T03:41:49;33.10;;;19.30;;
44462;SDS011;30170;52.190;8.702;2022-12-18T03:44:31;39.00;;;19.55;;
44462;SDS011;30170;52.190;8.702;2022-12-18T03:52:48;48.20;;;19.63;;
44462;SDS011;30170;52.190;8.702;2022-12-18T03:55:22;38.00;;;17.05;;
44462;SDS011;30170;52.190;8.702;2022-12-18T03:57:51;30.35;;;16.23;;
44462;SDS011;30170;52.190;8.702;2022-12-18T04:00:19;34.97;;;18.08;;
44462;SDS011;30170;52.190;8.702;2022-12-18T04:02:54;32.80;;;16.42;;
44462;SDS011;30170;52.190;8.702;2022-12-18T04:05:23;43.80;;;19.38;;
44462;SDS011;30170;52.190;8.702;2022-12-18T04:07:51;38.88;;;17.65;;
44462;SDS011;30170;52.190;8.702;2022-12-18T04:10:21;39.45;;;20.52;;
44462;SDS011;30170;52.190;8.702;2022-12-18T04:12:47;36.75;;;17.50;;
44462;SDS011;30170;52.190;8.702;2022-12-18T04:15:14;35.28;;;18.02;;
44462;SDS011;30170;52.190;8.702;2022-12-18T04:17:45;34.70;;;17.95;;
44462;SDS011;30170;52.190;8.702;2022-12-18T04:20:13;37.17;;;18.58;;
44462;SDS011;30170;52.190;8.702;2022-12-18T04:22:40;39.13;;;17.95;;
44462;SDS011;30170;52.190;8.702;2022-12-18T04:25:08;36.85;;;18.35;;
44462;SDS011;30170;52.190;8.702;2022-12-18T04:27:35;37.80;;;17.30;;
44462;SDS011;30170;52.190;8.702;2022-12-18T04:30:03;34.65;;;18.52;;
44462;SDS011;30170;52.190;8.702;2022-12-18T04:32:30;36.30;;;17.50;;
44462;SDS011;30170;52.190;8.702;2022-12-18T04:34:57;32.67;;;16.42;;
44462;SDS011;30170;52.190;8.702;2022-12-18T04:37:25;34.88;;;17.88;;
44462;SDS011;30170;52.190;8.702;2022-12-18T04:39:52;33.08;;;16.73;;
44462;SDS011;30170;52.190;8.702;2022-12-18T04:42:19;32.42;;;16.63;;
44462;SDS011;30170;52.190;8.702;2022-12-18T04:44:46;47.03;;;17.65;;
44462;SDS011;30170;52.190;8.702;2022-12-18T04:47:13;36.70;;;18.15;;
44462;SDS011;30170;52.190;8.702;2022-12-18T04:49:40;44.35;;;19.75;;
44462;SDS011;30170;52.190;8.702;2022-12-18T04:52:07;39.97;;;17.10;;
44462;SDS011;30170;52.190;8.702;2022-12-18T04:54:35;37.95;;;16.73;;
44462;SDS011;30170;52.190;8.702;2022-12-18T04:57:02;34.50;;;17.75;;
44462;SDS011;30170;52.190;8.702;2022-12-18T04:59:29;38.63;;;15.65;;
44462;SDS011;30170;52.190;8.702;2022-12-18T05:01:56;34.90;;;17.05;;
44462;SDS011;30170;52.190;8.702;2022-12-18T05:04:23;34.83;;;16.15;;
44462;SDS011;30170;52.190;8.702;2022-12-18T05:06:51;40.53;;;17.80;;
44462;SDS011;30170;52.190;8.702;2022-12-18T05:09:18;31.98;;;15.05;;
44462;SDS011;30170;52.190;8.702;2022-12-18T05:11:45;39.15;;;15.40;;
44462;SDS011;30170;52.190;8.702;2022-12-18T05:14:13;26.38;;;15.80;;
44462;SDS011;30170;52.190;8.702;2022-12-18T05:16:40;33.35;;;15.52;;
44462;SDS011;30170;52.190;8.702;2022-12-18T05:19:07;29.88;;;15.15;;
44462;SDS011;30170;52.190;8.702;2022-12-18T05:21:34;33.95;;;16.15;;
44462;SDS011;30170;52.190;8.702;2022-12-18T05:24:02;29.52;;;15.80;;
44462;SDS011;30170;52.190;8.702;2022-12-18T05:26:29;34.75;;;14.95;;
44462;SDS011;30170;52.190;8.702;2022-12-18T05:28:56;26.23;;;13.93;;
44462;SDS011;30170;52.190;8.702;2022-12-18T05:31:23;30.38;;;13.88;;
44462;SDS011;30170;52.190;8.702;2022-12-18T05:33:50;33.17;;;13.50;;
44462;SDS011;30170;52.190;8.702;2022-12-18T05:36:18;30.77;;;13.55;;
44462;SDS011;30170;52.190;8.702;2022-12-18T05:38:45;25.98;;;12.43;;
44462;SDS011;30170;52.190;8.702;2022-12-18T05:41:12;23.80;;;12.73;;
44462;SDS011;30170;52.190;8.702;2022-12-18T05:43:40;25.73;;;12.40;;
44462;SDS011;30170;52.190;8.702;2022-12-18T05:46:10;33.85;;;14.57;;
44462;SDS011;30170;52.190;8.702;2022-12-18T05:48:38;27.98;;;11.93;;
44462;SDS011;30170;52.190;8.702;2022-12-18T05:51:06;22.23;;;10.40;;
44462;SDS011;30170;52.190;8.702;2022-12-18T05:53:33;31.23;;;13.10;;
44462;SDS011;30170;52.190;8.702;2022-12-18T05:56:02;29.65;;;15.00;;
44462;SDS011;30170;52.190;8.702;2022-12-18T05:58:30;27.02;;;13.20;;
44462;SDS011;30170;52.190;8.702;2022-12-18T06:00:57;28.30;;;12.50;;
44462;SDS011;30170;52.190;8.702;2022-12-18T06:03:24;27.17;;;13.82;;
44462;SDS011;30170;52.190;8.702;2022-12-18T06:06:03;27.52;;;13.43;;
44462;SDS011;30170;52.190;8.702;2022-12-18T06:08:30;26.92;;;14.65;;
44462;SDS011;30170;52.190;8.702;2022-12-18T06:10:58;29.90;;;14.50;;
44462;SDS011;30170;52.190;8.702;2022-12-18T06:13:25;29.52;;;14.75;;
44462;SDS011;30170;52.190;8.702;2022-12-18T06:15:52;31.30;;;14.10;;
44462;SDS011;30170;52.190;8.702;2022-12-18T06:18:19;37.35;;;19.38;;
44462;SDS011;30170;52.190;8.702;2022-12-18T06:20:54;59.58;;;27.98;;
44462;SDS011;30170;52.190;8.702;2022-12-18T06:23:22;50.13;;;20.88;;
44462;SDS011;30170;52.190;8.702;2022-12-18T06:25:49;30.88;;;15.05;;
44462;SDS011;30170;52.190;8.702;2022-12-18T06:28:16;34.88;;;17.13;;
44462;SDS011;30170;52.190;8.702;2022-12-18T06:30:44;30.90;;;13.85;;
44462;SDS011;30170;52.190;8.702;2022-12-18T06:33:12;33.08;;;16.00;;
44462;SDS011;30170;52.190;8.702;2022-12-18T06:35:39;36.58;;;17.73;;
44462;SDS011;30170;52.190;8.702;2022-12-18T06:38:06;34.55;;;16.50;;
44462;SDS011;30170;52.190;8.702;2022-12-18T06:40:33;36.55;;;15.93;;
44462;SDS011;30170;52.190;8.702;2022-12-18T06:43:00;40.50;;;16.52;;
44462;SDS011;30170;52.190;8.702;2022-12-18T06:45:27;29.50;;;15.68;;
44462;SDS011;30170;52.190;8.702;2022-12-18T06:47:54;31.27;;;13.77;;
44462;SDS011;30170;52.190;8.702;2022-12-18T06:50:22;33.65;;;15.77;;
44462;SDS011;30170;52.190;8.702;2022-12-18T06:52:49;28.13;;;16.08;;
44462;SDS011;30170;52.190;8.702;2022-12-18T06:55:15;28.52;;;15.82;;
44462;SDS011;30170;52.190;8.702;2022-12-18T06:57:42;37.05;;;15.98;;
44462;SDS011;30170;52.190;8.702;2022-12-18T07:00:09;36.92;;;15.98;;
44462;SDS011;30170;52.190;8.702;2022-12-18T07:02:36;34.03;;;15.68;;
44462;SDS011;30170;52.190;8.702;2022-12-18T07:05:03;30.70;;;16.20;;
44462;SDS011;30170;52.190;8.702;2022-12-18T07:07:36;38.53;;;17.75;;
44462;SDS011;30170;52.190;8.702;2022-12-18T07:10:03;34.17;;;18.02;;
44462;SDS011;30170;52.190;8.702;2022-12-18T07:12:30;41.90;;;19.67;;
44462;SDS011;30170;52.190;8.702;2022-12-18T07:14:57;36.28;;;19.73;;
44462;SDS011;30170;52.190;8.702;2022-12-18T07:17:24;41.75;;;18.90;;
44462;SDS011;30170;52.190;8.702;2022-12-18T07:19:51;54.92;;;22.77;;
44462;SDS011;30170;52.190;8.702;2022-12-18T07:22:17;44.88;;;20.75;;
44462;SDS011;30170;52.190;8.702;2022-12-18T07:24:44;48.83;;;21.42;;
44462;SDS011;30170;52.190;8.702;2022-12-18T07:27:11;40.95;;;18.80;;
44462;SDS011;30170;52.190;8.702;2022-12-18T07:29:38;29.25;;;14.13;;
44462;SDS011;30170;52.190;8.702;2022-12-18T07:32:05;34.40;;;14.55;;
44462;SDS011;30170;52.190;8.702;2022-12-18T07:34:34;32.35;;;18.52;;
44462;SDS011;30170;52.190;8.702;2022-12-18T07:37:02;43.17;;;18.55;;
44462;SDS011;30170;52.190;8.702;2022-12-18T07:39:29;38.85;;;16.60;;
44462;SDS011;30170;52.190;8.702;2022-12-18T07:41:55;37.70;;;18.08;;
44462;SDS011;30170;52.190;8.702;2022-12-18T07:44:41;34.58;;;17.35;;
44462;SDS011;30170;52.190;8.702;2022-12-18T07:47:07;28.85;;;16.05;;
44462;SDS011;30170;52.190;8.702;2022-12-18T07:49:37;28.80;;;16.00;;
44462;SDS011;30170;52.190;8.702;2022-12-18T07:52:04;33.45;;;17.67;;
44462;SDS011;30170;52.190;8.702;2022-12-18T07:54:31;40.72;;;18.08;;
44462;SDS011;30170;52.190;8.702;2022-12-18T07:56:57;32.97;;;15.75;;
44462;SDS011;30170;52.190;8.702;2022-12-18T07:59:25;41.78;;;16.88;;
44462;SDS011;30170;52.190;8.702;2022-12-18T08:01:52;40.28;;;18.10;;
44462;SDS011;30170;52.190;8.702;2022-12-18T08:04:19;39.13;;;17.65;;
44462;SDS011;30170;52.190;8.702;2022-12-18T08:06:46;39.42;;;18.35;;
44462;SDS011;30170;52.190;8.702;2022-12-18T08:09:13;36.72;;;16.38;;
44462;SDS011;30170;52.190;8.702;2022-12-18T08:11:40;37.55;;;18.40;;
44462;SDS011;30170;52.190;8.702;2022-12-18T08:14:07;35.95;;;18.40;;
44462;SDS011;30170;52.190;8.702;2022-12-18T08:16:34;37.08;;;15.93;;
44462;SDS011;30170;52.190;8.702;2022-12-18T08:19:01;32.10;;;16.42;;
44462;SDS011;30170;52.190;8.702;2022-12-18T08:21:29;41.65;;;17.63;;
44462;SDS011;30170;52.190;8.702;2022-12-18T08:23:58;37.95;;;17.27;;
44462;SDS011;30170;52.190;8.702;2022-12-18T08:26:28;35.80;;;18.25;;
44462;SDS011;30170;52.190;8.702;2022-12-18T08:28:57;37.92;;;19.17;;
44462;SDS011;30170;52.190;8.702;2022-12-18T08:31:25;41.72;;;19.33;;
44462;SDS011;30170;52.190;8.702;2022-12-18T08:33:54;34.75;;;19.92;;
44462;SDS011;30170;52.190;8.702;2022-12-18T08:36:22;42.00;;;21.02;;
44462;SDS011;30170;52.190;8.702;2022-12-18T08:38:50;40.05;;;20.67;;
44462;SDS011;30170;52.190;8.702;2022-12-18T08:41:17;42.47;;;20.40;;
44462;SDS011;30170;52.190;8.702;2022-12-18T08:43:44;43.42;;;18.02;;
44462;SDS011;30170;52.190;8.702;2022-12-18T08:46:47;32.90;;;19.55;;
44462;SDS011;30170;52.190;8.702;2022-12-18T08:49:14;38.30;;;19.00;;
44462;SDS011;30170;52.190;8.702;2022-12-18T08:51:41;39.20;;;18.92;;
44462;SDS011;30170;52.190;8.702;2022-12-18T08:54:10;41.28;;;17.30;;
44462;SDS011;30170;52.190;8.702;2022-12-18T08:56:39;33.50;;;18.55;;
44462;SDS011;30170;52.190;8.702;2022-12-18T08:59:09;31.65;;;16.88;;
44462;SDS011;30170;52.190;8.702;2022-12-18T09:01:44;29.63;;;17.42;;
44462;SDS011;30170;52.190;8.702;2022-12-18T09:04:12;34.42;;;17.73;;
44462;SDS011;30170;52.190;8.702;2022-12-18T09:06:40;28.73;;;17.02;;
44462;SDS011;30170;52.190;8.702;2022-12-18T09:09:07;40.95;;;17.60;;
44462;SDS011;30170;52.190;8.702;2022-12-18T09:11:35;38.75;;;18.83;;
44462;SDS011;30170;52.190;8.702;2022-12-18T09:14:06;39.63;;;20.10;;
44462;SDS011;30170;52.190;8.702;2022-12-18T09:16:33;41.92;;;23.65;;
44462;SDS011;30170;52.190;8.702;2022-12-18T09:19:02;42.22;;;23.42;;
44462;SDS011;30170;52.190;8.702;2022-12-18T09:21:31;41.42;;;22.08;;
44462;SDS011;30170;52.190;8.702;2022-12-18T09:24:02;44.05;;;21.70;;
44462;SDS011;30170;52.190;8.702;2022-12-18T09:26:33;42.53;;;22.33;;
44462;SDS011;30170;52.190;8.702;2022-12-18T09:29:01;51.50;;;27.73;;
44462;SDS011;30170;52.190;8.702;2022-12-18T09:31:29;53.35;;;29.42;;
44462;SDS011;30170;52.190;8.702;2022-12-18T09:33:56;54.65;;;29.58;;
44462;SDS011;30170;52.190;8.702;2022-12-18T09:36:22;49.47;;;27.42;;
44462;SDS011;30170;52.190;8.702;2022-12-18T09:38:49;51.03;;;27.20;;
44462;SDS011;30170;52.190;8.702;2022-12-18T09:41:36;47.40;;;24.48;;
44462;SDS011;30170;52.190;8.702;2022-12-18T09:44:18;43.20;;;24.40;;
44462;SDS011;30170;52.190;8.702;2022-12-18T09:47:07;40.22;;;22.08;;
44462;SDS011;30170;52.190;8.702;2022-12-18T09:49:58;47.38;;;22.17;;
44462;SDS011;30170;52.190;8.702;2022-12-18T09:53:02;39.15;;;21.83;;
44462;SDS011;30170;52.190;8.702;2022-12-18T09:58:13;43.85;;;24.35;;
44462;SDS011;30170;52.190;8.702;2022-12-18T10:00:51;55.25;;;29.27;;
44462;SDS011;30170;52.190;8.702;2022-12-18T10:03:21;56.60;;;29.90;;
44462;SDS011;30170;52.190;8.702;2022-12-18T10:08:21;53.17;;;28.23;;
44462;SDS011;30170;52.190;8.702;2022-12-18T10:19:38;33.10;;;20.75;;
44462;SDS011;30170;52.190;8.702;2022-12-18T10:25:15;60.17;;;34.30;;
44462;SDS011;30170;52.190;8.702;2022-12-18T10:27:54;57.58;;;34.17;;
44462;SDS011;30170;52.190;8.702;2022-12-18T10:30:24;42.05;;;26.90;;
44462;SDS011;30170;52.190;8.702;2022-12-18T10:32:52;49.03;;;30.45;;
44462;SDS011;30170;52.190;8.702;2022-12-18T10:35:21;32.88;;;20.75;;
44462;SDS011;30170;52.190;8.702;2022-12-18T10:40:33;21.75;;;13.10;;
44462;SDS011;30170;52.190;8.702;2022-12-18T10:43:19;15.85;;;10.07;;
44462;SDS011;30170;52.190;8.702;2022-12-18T10:46:10;12.85;;;6.22;;
44462;SDS011;30170;52.190;8.702;2022-12-18T10:51:46;7.03;;;4.75;;
44462;SDS011;30170;52.190;8.702;2022-12-18T10:54:07;8.85;;;4.78;;
44462;SDS011;30170;52.190;8.702;2022-12-18T10:56:39;8.95;;;5.20;;
44462;SDS011;30170;52.190;8.702;2022-12-18T10:59:11;9.35;;;4.43;;
44462;SDS011;30170;52.190;8.702;2022-12-18T11:04:25;6.90;;;3.65;;
44462;SDS011;30170;52.190;8.702;2022-12-18T11:07:01;8.52;;;3.85;;
44462;SDS011;30170;52.190;8.702;2022-12-18T11:09:31;11.02;;;4.25;;
44462;SDS011;30170;52.190;8.702;2022-12-18T11:12:00;7.78;;;4.00;;
44462;SDS011;30170;52.190;8.702;2022-12-18T11:17:01;9.23;;;5.28;;
44462;SDS011;30170;52.190;8.702;2022-12-18T11:19:52;11.32;;;5.55;;
44462;SDS011;30170;52.190;8.702;2022-12-18T11:22:26;11.75;;;5.30;;
44462;SDS011;30170;52.190;8.702;2022-12-18T11:24:56;11.73;;;5.82;;
44462;SDS011;30170;52.190;8.702;2022-12-18T11:27:54;11.45;;;5.05;;
44462;SDS011;30170;52.190;8.702;2022-12-18T11:30:24;8.23;;;4.63;;
44462;SDS011;30170;52.190;8.702;2022-12-18T11:32:58;8.38;;;4.80;;
44462;SDS011;30170;52.190;8.702;2022-12-18T11:40:44;10.73;;;4.72;;
44462;SDS011;30170;52.190;8.702;2022-12-18T11:43:29;10.23;;;5.60;;
44462;SDS011;30170;52.190;8.702;2022-12-18T11:46:09;8.18;;;4.70;;
44462;SDS011;30170;52.190;8.702;2022-12-18T11:48:47;8.38;;;4.65;;
44462;SDS011;30170;52.190;8.702;2022-12-18T11:51:23;10.00;;;5.95;;
44462;SDS011;30170;52.190;8.702;2022-12-18T11:54:12;9.35;;;4.88;;
44462;SDS011;30170;52.190;8.702;2022-12-18T11:56:56;7.90;;;5.40;;
44462;SDS011;30170;52.190;8.702;2022-12-18T12:11:07;10.55;;;5.57;;
44462;SDS011;30170;52.190;8.702;2022-12-18T12:19:15;10.18;;;5.68;;
44462;SDS011;30170;52.190;8.702;2022-12-18T12:22:07;10.02;;;5.55;;
44462;SDS011;30170;52.190;8.702;2022-12-18T12:27:36;7.85;;;5.40;;
44462;SDS011;30170;52.190;8.702;2022-12-18T12:30:18;7.35;;;5.43;;
44462;SDS011;30170;52.190;8.702;2022-12-18T12:35:52;8.27;;;5.40;;
44462;SDS011;30170;52.190;8.702;2022-12-18T12:38:42;12.80;;;6.75;;
44462;SDS011;30170;52.190;8.702;2022-12-18T12:41:18;9.68;;;4.85;;
44462;SDS011;30170;52.190;8.702;2022-12-18T12:44:13;11.18;;;5.15;;
44462;SDS011;30170;52.190;8.702;2022-12-18T12:46:45;7.93;;;5.07;;
44462;SDS011;30170;52.190;8.702;2022-12-18T12:49:15;10.73;;;5.25;;
44462;SDS011;30170;52.190;8.702;2022-12-18T12:54:40;12.32;;;5.90;;
44462;SDS011;30170;52.190;8.702;2022-12-18T12:57:13;7.70;;;4.65;;
44462;SDS011;30170;52.190;8.702;2022-12-18T12:59:51;10.02;;;4.63;;
44462;SDS011;30170;52.190;8.702;2022-12-18T13:02:35;8.27;;;4.82;;
44462;SDS011;30170;52.190;8.702;2022-12-18T13:08:10;8.07;;;4.65;;
44462;SDS011;30170;52.190;8.702;2022-12-18T13:10:49;10.70;;;4.95;;
44462;SDS011;30170;52.190;8.702;2022-12-18T13:13:48;10.60;;;4.85;;
44462;SDS011;30170;52.190;8.702;2022-12-18T13:16:18;8.70;;;5.28;;
44462;SDS011;30170;52.190;8.702;2022-12-18T13:18:54;9.55;;;5.25;;
44462;SDS011;30170;52.190;8.702;2022-12-18T13:23:57;7.07;;;4.80;;
44462;SDS011;30170;52.190;8.702;2022-12-18T13:27:02;9.32;;;5.05;;
44462;SDS011;30170;52.190;8.702;2022-12-18T13:35:41;11.68;;;5.18;;
44462;SDS011;30170;52.190;8.702;2022-12-18T13:38:23;8.13;;;4.78;;
44462;SDS011;30170;52.190;8.702;2022-12-18T13:41:24;7.50;;;4.72;;
44462;SDS011;30170;52.190;8.702;2022-12-18T13:43:52;11.75;;;4.88;;
44462;SDS011;30170;52.190;8.702;2022-12-18T13:46:47;12.32;;;6.03;;
44462;SDS011;30170;52.190;8.702;2022-12-18T13:52:01;8.98;;;4.68;;
44462;SDS011;30170;52.190;8.702;2022-12-18T13:54:36;10.95;;;5.10;;
44462;SDS011;30170;52.190;8.702;2022-12-18T13:57:24;9.15;;;5.35;;
44462;SDS011;30170;52.190;8.702;2022-12-18T14:02:47;10.95;;;5.53;;
44462;SDS011;30170;52.190;8.702;2022-12-18T14:05:48;10.90;;;5.85;;
44462;SDS011;30170;52.190;8.702;2022-12-18T14:08:12;17.50;;;9.07;;
44462;SDS011;30170;52.190;8.702;2022-12-18T14:10:42;14.80;;;8.45;;
44462;SDS011;30170;52.190;8.702;2022-12-18T14:13:19;10.50;;;5.72;;
44462;SDS011;30170;52.190;8.702;2022-12-18T14:15:54;10.45;;;5.28;;
44462;SDS011;30170;52.190;8.702;2022-12-18T14:18:34;13.00;;;4.78;;
44462;SDS011;30170;52.190;8.702;2022-12-18T14:21:27;10.20;;;5.55;;
44462;SDS011;30170;52.190;8.702;2022-12-18T14:24:06;8.63;;;4.80;;
44462;SDS011;30170;52.190;8.702;2022-12-18T14:26:45;7.50;;;4.78;;
44462;SDS011;30170;52.190;8.702;2022-12-18T14:34:47;10.98;;;5.65;;
44462;SDS011;30170;52.190;8.702;2022-12-18T14:37:21;10.80;;;5.47;;
44462;SDS011;30170;52.190;8.702;2022-12-18T14:39:59;9.15;;;5.60;;
44462;SDS011;30170;52.190;8.702;2022-12-18T14:42:36;10.57;;;5.75;;
44462;SDS011;30170;52.190;8.702;2022-12-18T14:48:30;10.93;;;5.15;;
44462;SDS011;30170;52.190;8.702;2022-12-18T14:53:57;9.77;;;5.82;;
44462;SDS011;30170;52.190;8.702;2022-12-18T14:56:30;12.00;;;4.55;;
44462;SDS011;30170;52.190;8.702;2022-12-18T14:58:59;9.63;;;5.47;;
44462;SDS011;30170;52.190;8.702;2022-12-18T15:01:50;8.80;;;4.85;;
44462;SDS011;30170;52.190;8.702;2022-12-18T15:04:29;8.05;;;4.47;;
44462;SDS011;30170;52.190;8.702;2022-12-18T15:09:40;11.07;;;5.70;;
44462;SDS011;30170;52.190;8.702;2022-12-18T15:12:26;10.88;;;5.30;;
44462;SDS011;30170;52.190;8.702;2022-12-18T15:15:43;10.98;;;5.13;;
44462;SDS011;30170;52.190;8.702;2022-12-18T15:20:50;14.10;;;5.43;;
44462;SDS011;30170;52.190;8.702;2022-12-18T15:23:25;11.13;;;5.53;;
44462;SDS011;30170;52.190;8.702;2022-12-18T15:26:02;8.85;;;5.22;;
44462;SDS011;30170;52.190;8.702;2022-12-18T15:28:35;11.90;;;5.65;;
44462;SDS011;30170;52.190;8.702;2022-12-18T15:33:36;10.52;;;5.57;;
44462;SDS011;30170;52.190;8.702;2022-12-18T15:36:13;12.32;;;4.70;;
44462;SDS011;30170;52.190;8.702;2022-12-18T15:38:46;9.50;;;6.03;;
44462;SDS011;30170;52.190;8.702;2022-12-18T15:41:14;10.35;;;5.45;;
44462;SDS011;30170;52.190;8.702;2022-12-18T15:43:50;9.00;;;5.97;;
44462;SDS011;30170;52.190;8.702;2022-12-18T15:46:23;6.68;;;4.60;;
44462;SDS011;30170;52.190;8.702;2022-12-18T15:48:53;10.05;;;5.97;;
44462;SDS011;30170;52.190;8.702;2022-12-18T15:51:28;11.00;;;6.07;;
44462;SDS011;30170;52.190;8.702;2022-12-18T15:53:59;11.70;;;5.88;;
44462;SDS011;30170;52.190;8.702;2022-12-18T15:56:30;8.30;;;5.32;;
44462;SDS011;30170;52.190;8.702;2022-12-18T15:59:17;12.02;;;5.95;;
44462;SDS011;30170;52.190;8.702;2022-12-18T16:01:47;11.07;;;5.35;;
44462;SDS011;30170;52.190;8.702;2022-12-18T16:04:16;11.00;;;6.07;;
44462;SDS011;30170;52.190;8.702;2022-12-18T16:06:46;10.55;;;6.15;;
44462;SDS011;30170;52.190;8.702;2022-12-18T16:09:33;12.32;;;6.07;;
44462;SDS011;30170;52.190;8.702;2022-12-18T16:12:00;13.57;;;6.93;;
44462;SDS011;30170;52.190;8.702;2022-12-18T16:14:28;11.55;;;6.68;;
44462;SDS011;30170;52.190;8.702;2022-12-18T16:16:57;12.52;;;6.40;;
44462;SDS011;30170;52.190;8.702;2022-12-18T16:19:25;10.68;;;6.38;;
44462;SDS011;30170;52.190;8.702;2022-12-18T16:21:54;9.18;;;5.78;;
44462;SDS011;30170;52.190;8.702;2022-12-18T16:24:23;14.05;;;6.65;;
44462;SDS011;30170;52.190;8.702;2022-12-18T16:26:52;9.98;;;6.35;;
44462;SDS011;30170;52.190;8.702;2022-12-18T16:29:23;13.00;;;6.90;;
44462;SDS011;30170;52.190;8.702;2022-12-18T16:31:57;18.30;;;9.55;;
44462;SDS011;30170;52.190;8.702;2022-12-18T16:34:26;13.85;;;7.30;;
44462;SDS011;30170;52.190;8.702;2022-12-18T16:36:58;12.07;;;6.63;;
44462;SDS011;30170;52.190;8.702;2022-12-18T16:39:31;16.90;;;8.40;;
44462;SDS011;30170;52.190;8.702;2022-12-18T16:42:04;14.68;;;7.47;;
44462;SDS011;30170;52.190;8.702;2022-12-18T16:44:46;10.85;;;6.60;;
44462;SDS011;30170;52.190;8.702;2022-12-18T16:47:14;13.55;;;7.15;;
44462;SDS011;30170;52.190;8.702;2022-12-18T16:49:41;11.73;;;5.90;;
44462;SDS011;30170;52.190;8.702;2022-12-18T16:52:10;14.05;;;6.57;;
44462;SDS011;30170;52.190;8.702;2022-12-18T16:54:37;12.02;;;6.97;;
44462;SDS011;30170;52.190;8.702;2022-12-18T16:57:04;12.38;;;7.00;;
44462;SDS011;30170;52.190;8.702;2022-12-18T16:59:31;11.30;;;6.82;;
44462;SDS011;30170;52.190;8.702;2022-12-18T17:02:01;10.73;;;6.80;;
44462;SDS011;30170;52.190;8.702;2022-12-18T17:04:31;14.07;;;7.82;;
44462;SDS011;30170;52.190;8.702;2022-12-18T17:06:59;14.65;;;6.45;;
44462;SDS011;30170;52.190;8.702;2022-12-18T17:09:26;15.57;;;7.55;;